sensor_id;sensor_type;location;lat;lon;timestamp;P1;durP1;ratioP1;P2;durP2;ratioP2
21862;SDS011;11096;51.338;12.524;2023-04-01T00:01:53;4.32;;;0.90;;
21862;SDS011;11096;51.338;12.524;2023-04-01T00:04:19;4.43;;;0.98;;
21862;SDS011;11096;51.338;12.524;2023-04-01T00:06:45;1.67;;;0.98;;
21862;SDS011;11096;51.338;12.524;2023-04-01T00:09:12;3.53;;;1.05;;
21862;SDS011;11096;51.338;12.524;2023-04-01T00:11:38;2.35;;;0.98;;
21862;SDS011;11096;51.338;12.524;2023-04-01T00:14:03;2.55;;;1.00;;
21862;SDS011;11096;51.338;12.524;2023-04-01T00:16:29;6.50;;;1.17;;
21862;SDS011;11096;51.338;12.524;2023-04-01T00:18:55;2.10;;;1.05;;
21862;SDS011;11096;51.338;12.524;2023-04-01T00:21:21;2.78;;;1.20;;
21862;SDS011;11096;51.338;12.524;2023-04-01T00:23:47;2.90;;;1.00;;
21862;SDS011;11096;51.338;12.524;2023-04-01T00:26:13;3.47;;;1.00;;
21862;SDS011;11096;51.338;12.524;2023-04-01T00:28:40;2.28;;;1.20;;
21862;SDS011;11096;51.338;12.524;2023-04-01T00:31:06;4.38;;;1.15;;
21862;SDS011;11096;51.338;12.524;2023-04-01T00:33:33;2.30;;;0.93;;
21862;SDS011;11096;51.338;12.524;2023-04-01T00:38:33;2.22;;;1.02;;
21862;SDS011;11096;51.338;12.524;2023-04-01T00:40:59;2.25;;;0.80;;
21862;SDS011;11096;51.338;12.524;2023-04-01T00:43:25;1.85;;;1.08;;
21862;SDS011;11096;51.338;12.524;2023-04-01T00:45:51;2.00;;;1.02;;
21862;SDS011;11096;51.338;12.524;2023-04-01T00:48:21;1.80;;;0.95;;
21862;SDS011;11096;51.338;12.524;2023-04-01T00:50:56;3.10;;;1.10;;
21862;SDS011;11096;51.338;12.524;2023-04-01T00:53:25;2.40;;;1.20;;
21862;SDS011;11096;51.338;12.524;2023-04-01T00:56:35;2.10;;;1.02;;
21862;SDS011;11096;51.338;12.524;2023-04-01T00:59:06;3.42;;;0.95;;
21862;SDS011;11096;51.338;12.524;2023-04-01T01:01:36;3.10;;;0.93;;
21862;SDS011;11096;51.338;12.524;2023-04-01T01:04:01;3.42;;;1.30;;
21862;SDS011;11096;51.338;12.524;2023-04-01T01:17:13;2.88;;;1.50;;
21862;SDS011;11096;51.338;12.524;2023-04-01T01:23:21;3.33;;;1.40;;
21862;SDS011;11096;51.338;12.524;2023-04-01T01:28:19;5.30;;;1.42;;
21862;SDS011;11096;51.338;12.524;2023-04-01T01:36:36;1.95;;;1.23;;
21862;SDS011;11096;51.338;12.524;2023-04-01T01:39:05;2.50;;;1.25;;
21862;SDS011;11096;51.338;12.524;2023-04-01T01:41:33;2.38;;;1.25;;
21862;SDS011;11096;51.338;12.524;2023-04-01T01:44:00;3.92;;;1.40;;
21862;SDS011;11096;51.338;12.524;2023-04-01T01:46:30;4.55;;;1.17;;
21862;SDS011;11096;51.338;12.524;2023-04-01T01:48:56;5.18;;;1.35;;
21862;SDS011;11096;51.338;12.524;2023-04-01T01:51:24;2.25;;;1.08;;
21862;SDS011;11096;51.338;12.524;2023-04-01T01:53:52;3.40;;;1.45;;
21862;SDS011;11096;51.338;12.524;2023-04-01T01:56:18;3.35;;;1.40;;
21862;SDS011;11096;51.338;12.524;2023-04-01T01:58:50;5.10;;;1.80;;
21862;SDS011;11096;51.338;12.524;2023-04-01T02:01:21;4.60;;;1.50;;
21862;SDS011;11096;51.338;12.524;2023-04-01T02:03:51;5.07;;;1.27;;
21862;SDS011;11096;51.338;12.524;2023-04-01T02:06:18;3.53;;;1.40;;
21862;SDS011;11096;51.338;12.524;2023-04-01T02:08:54;6.28;;;1.95;;
21862;SDS011;11096;51.338;12.524;2023-04-01T02:11:24;2.88;;;1.55;;
21862;SDS011;11096;51.338;12.524;2023-04-01T02:16:34;2.58;;;1.63;;
21862;SDS011;11096;51.338;12.524;2023-04-01T02:19:05;4.10;;;1.70;;
21862;SDS011;11096;51.338;12.524;2023-04-01T02:21:34;4.68;;;1.35;;
21862;SDS011;11096;51.338;12.524;2023-04-01T02:24:02;3.78;;;1.30;;
21862;SDS011;11096;51.338;12.524;2023-04-01T02:26:32;6.43;;;1.60;;
21862;SDS011;11096;51.338;12.524;2023-04-01T02:28:57;2.65;;;1.52;;
21862;SDS011;11096;51.338;12.524;2023-04-01T02:31:26;3.05;;;1.48;;
21862;SDS011;11096;51.338;12.524;2023-04-01T02:33:52;4.05;;;1.45;;
21862;SDS011;11096;51.338;12.524;2023-04-01T02:36:19;3.40;;;1.30;;
21862;SDS011;11096;51.338;12.524;2023-04-01T02:38:45;5.70;;;1.60;;
21862;SDS011;11096;51.338;12.524;2023-04-01T02:41:11;2.92;;;1.38;;
21862;SDS011;11096;51.338;12.524;2023-04-01T02:43:37;4.47;;;1.50;;
21862;SDS011;11096;51.338;12.524;2023-04-01T02:46:03;3.67;;;1.50;;
21862;SDS011;11096;51.338;12.524;2023-04-01T02:48:28;2.72;;;1.50;;
21862;SDS011;11096;51.338;12.524;2023-04-01T02:50:54;5.85;;;1.40;;
21862;SDS011;11096;51.338;12.524;2023-04-01T02:53:20;5.18;;;1.40;;
21862;SDS011;11096;51.338;12.524;2023-04-01T02:55:46;2.60;;;1.40;;
21862;SDS011;11096;51.338;12.524;2023-04-01T02:58:14;4.10;;;1.40;;
21862;SDS011;11096;51.338;12.524;2023-04-01T03:00:40;2.20;;;1.40;;
21862;SDS011;11096;51.338;12.524;2023-04-01T03:03:05;6.50;;;1.30;;
21862;SDS011;11096;51.338;12.524;2023-04-01T03:05:32;4.50;;;1.20;;
21862;SDS011;11096;51.338;12.524;2023-04-01T03:07:57;6.13;;;1.25;;
21862;SDS011;11096;51.338;12.524;2023-04-01T03:10:23;3.25;;;1.40;;
21862;SDS011;11096;51.338;12.524;2023-04-01T03:12:48;4.43;;;1.20;;
21862;SDS011;11096;51.338;12.524;2023-04-01T03:15:14;5.10;;;1.50;;
21862;SDS011;11096;51.338;12.524;2023-04-01T03:17:40;4.18;;;1.38;;
21862;SDS011;11096;51.338;12.524;2023-04-01T03:20:06;3.30;;;1.50;;
21862;SDS011;11096;51.338;12.524;2023-04-01T03:22:33;2.67;;;1.60;;
21862;SDS011;11096;51.338;12.524;2023-04-01T03:25:00;3.75;;;1.50;;
21862;SDS011;11096;51.338;12.524;2023-04-01T03:27:25;2.72;;;1.73;;
21862;SDS011;11096;51.338;12.524;2023-04-01T03:29:51;5.60;;;1.60;;
21862;SDS011;11096;51.338;12.524;2023-04-01T03:32:16;1.67;;;1.27;;
21862;SDS011;11096;51.338;12.524;2023-04-01T03:34:41;5.60;;;1.50;;
21862;SDS011;11096;51.338;12.524;2023-04-01T03:37:07;3.38;;;1.95;;
21862;SDS011;11096;51.338;12.524;2023-04-01T03:39:32;4.53;;;1.50;;
21862;SDS011;11096;51.338;12.524;2023-04-01T03:41:58;6.10;;;1.35;;
21862;SDS011;11096;51.338;12.524;2023-04-01T03:44:24;4.15;;;1.58;;
21862;SDS011;11096;51.338;12.524;2023-04-01T03:46:49;3.35;;;1.52;;
21862;SDS011;11096;51.338;12.524;2023-04-01T03:49:15;5.07;;;1.70;;
21862;SDS011;11096;51.338;12.524;2023-04-01T03:51:41;2.72;;;1.77;;
21862;SDS011;11096;51.338;12.524;2023-04-01T03:54:10;5.35;;;1.30;;
21862;SDS011;11096;51.338;12.524;2023-04-01T03:56:36;4.70;;;1.27;;
21862;SDS011;11096;51.338;12.524;2023-04-01T03:59:03;2.53;;;1.27;;
21862;SDS011;11096;51.338;12.524;2023-04-01T04:01:30;4.95;;;1.23;;
21862;SDS011;11096;51.338;12.524;2023-04-01T04:03:55;2.15;;;0.98;;
21862;SDS011;11096;51.338;12.524;2023-04-01T04:06:21;4.28;;;1.30;;
21862;SDS011;11096;51.338;12.524;2023-04-01T04:08:47;3.17;;;1.38;;
21862;SDS011;11096;51.338;12.524;2023-04-01T04:11:13;4.45;;;1.67;;
21862;SDS011;11096;51.338;12.524;2023-04-01T04:13:39;4.85;;;1.45;;
21862;SDS011;11096;51.338;12.524;2023-04-01T04:16:05;3.05;;;1.58;;
21862;SDS011;11096;51.338;12.524;2023-04-01T04:18:31;4.20;;;1.55;;
21862;SDS011;11096;51.338;12.524;2023-04-01T04:20:58;3.08;;;1.30;;
21862;SDS011;11096;51.338;12.524;2023-04-01T04:23:24;2.10;;;1.30;;
21862;SDS011;11096;51.338;12.524;2023-04-01T04:25:53;7.30;;;1.70;;
21862;SDS011;11096;51.338;12.524;2023-04-01T04:28:23;3.63;;;1.33;;
21862;SDS011;11096;51.338;12.524;2023-04-01T04:30:50;3.67;;;1.45;;
21862;SDS011;11096;51.338;12.524;2023-04-01T04:33:16;6.88;;;1.73;;
21862;SDS011;11096;51.338;12.524;2023-04-01T04:35:41;6.65;;;1.63;;
21862;SDS011;11096;51.338;12.524;2023-04-01T04:38:07;1.30;;;1.20;;
21862;SDS011;11096;51.338;12.524;2023-04-01T04:40:32;4.25;;;1.27;;
21862;SDS011;11096;51.338;12.524;2023-04-01T04:42:57;2.38;;;1.42;;
21862;SDS011;11096;51.338;12.524;2023-04-01T04:45:23;2.58;;;1.13;;
21862;SDS011;11096;51.338;12.524;2023-04-01T04:47:48;5.20;;;1.63;;
21862;SDS011;11096;51.338;12.524;2023-04-01T04:50:14;4.07;;;1.15;;
21862;SDS011;11096;51.338;12.524;2023-04-01T04:52:39;6.68;;;2.10;;
21862;SDS011;11096;51.338;12.524;2023-04-01T04:55:05;2.47;;;1.20;;
21862;SDS011;11096;51.338;12.524;2023-04-01T04:57:31;2.13;;;1.45;;
21862;SDS011;11096;51.338;12.524;2023-04-01T04:59:56;3.17;;;1.52;;
21862;SDS011;11096;51.338;12.524;2023-04-01T05:02:21;6.47;;;1.50;;
21862;SDS011;11096;51.338;12.524;2023-04-01T05:04:47;3.50;;;1.60;;
21862;SDS011;11096;51.338;12.524;2023-04-01T05:07:12;1.40;;;1.30;;
21862;SDS011;11096;51.338;12.524;2023-04-01T05:09:38;4.93;;;1.30;;
21862;SDS011;11096;51.338;12.524;2023-04-01T05:12:03;5.35;;;1.27;;
21862;SDS011;11096;51.338;12.524;2023-04-01T05:14:29;3.13;;;1.63;;
21862;SDS011;11096;51.338;12.524;2023-04-01T05:16:54;4.72;;;1.52;;
21862;SDS011;11096;51.338;12.524;2023-04-01T05:19:20;3.05;;;1.25;;
21862;SDS011;11096;51.338;12.524;2023-04-01T05:21:46;3.28;;;1.52;;
21862;SDS011;11096;51.338;12.524;2023-04-01T05:24:11;2.33;;;1.40;;
21862;SDS011;11096;51.338;12.524;2023-04-01T05:26:37;5.85;;;1.60;;
21862;SDS011;11096;51.338;12.524;2023-04-01T05:29:03;6.63;;;1.17;;
21862;SDS011;11096;51.338;12.524;2023-04-01T05:31:29;2.75;;;1.00;;
21862;SDS011;11096;51.338;12.524;2023-04-01T05:33:55;2.45;;;1.10;;
21862;SDS011;11096;51.338;12.524;2023-04-01T05:36:20;1.33;;;0.90;;
21862;SDS011;11096;51.338;12.524;2023-04-01T05:38:46;4.57;;;1.38;;
21862;SDS011;11096;51.338;12.524;2023-04-01T05:41:12;2.25;;;1.17;;
21862;SDS011;11096;51.338;12.524;2023-04-01T05:43:39;4.68;;;1.23;;
21862;SDS011;11096;51.338;12.524;2023-04-01T05:46:05;4.40;;;1.40;;
21862;SDS011;11096;51.338;12.524;2023-04-01T05:48:31;5.40;;;1.20;;
21862;SDS011;11096;51.338;12.524;2023-04-01T05:50:58;4.40;;;1.63;;
21862;SDS011;11096;51.338;12.524;2023-04-01T05:53:24;5.30;;;1.08;;
21862;SDS011;11096;51.338;12.524;2023-04-01T05:55:50;5.60;;;1.08;;
21862;SDS011;11096;51.338;12.524;2023-04-01T05:58:15;6.03;;;1.30;;
21862;SDS011;11096;51.338;12.524;2023-04-01T06:00:40;4.15;;;1.30;;
21862;SDS011;11096;51.338;12.524;2023-04-01T06:03:06;4.00;;;1.25;;
21862;SDS011;11096;51.338;12.524;2023-04-01T06:05:37;2.63;;;1.25;;
21862;SDS011;11096;51.338;12.524;2023-04-01T06:08:11;4.57;;;1.17;;
21862;SDS011;11096;51.338;12.524;2023-04-01T06:14:10;3.78;;;1.10;;
21862;SDS011;11096;51.338;12.524;2023-04-01T06:27:12;4.03;;;1.30;;
21862;SDS011;11096;51.338;12.524;2023-04-01T06:45:41;2.08;;;1.13;;
21862;SDS011;11096;51.338;12.524;2023-04-01T06:54:04;3.97;;;1.40;;
21862;SDS011;11096;51.338;12.524;2023-04-01T06:56:50;5.00;;;1.45;;
21862;SDS011;11096;51.338;12.524;2023-04-01T06:59:25;3.70;;;1.17;;
21862;SDS011;11096;51.338;12.524;2023-04-01T07:01:54;4.68;;;1.48;;
21862;SDS011;11096;51.338;12.524;2023-04-01T07:04:34;4.47;;;1.20;;
21862;SDS011;11096;51.338;12.524;2023-04-01T07:07:08;4.80;;;1.30;;
21862;SDS011;11096;51.338;12.524;2023-04-01T07:09:41;4.32;;;1.48;;
21862;SDS011;11096;51.338;12.524;2023-04-01T07:15:01;3.85;;;1.10;;
21862;SDS011;11096;51.338;12.524;2023-04-01T07:17:36;10.10;;;1.70;;
21862;SDS011;11096;51.338;12.524;2023-04-01T07:22:41;5.05;;;1.13;;
21862;SDS011;11096;51.338;12.524;2023-04-01T07:25:17;2.15;;;0.88;;
21862;SDS011;11096;51.338;12.524;2023-04-01T07:27:47;2.40;;;1.23;;
21862;SDS011;11096;51.338;12.524;2023-04-01T07:30:14;3.17;;;1.20;;
21862;SDS011;11096;51.338;12.524;2023-04-01T07:32:44;4.25;;;0.98;;
21862;SDS011;11096;51.338;12.524;2023-04-01T07:35:19;1.42;;;0.88;;
21862;SDS011;11096;51.338;12.524;2023-04-01T07:37:57;3.75;;;1.08;;
21862;SDS011;11096;51.338;12.524;2023-04-01T07:51:24;1.23;;;0.73;;
21862;SDS011;11096;51.338;12.524;2023-04-01T07:54:14;1.95;;;0.95;;
21862;SDS011;11096;51.338;12.524;2023-04-01T07:56:58;1.33;;;0.68;;
21862;SDS011;11096;51.338;12.524;2023-04-01T08:00:01;1.15;;;0.63;;
21862;SDS011;11096;51.338;12.524;2023-04-01T08:05:27;0.70;;;0.52;;
21862;SDS011;11096;51.338;12.524;2023-04-01T08:08:01;4.35;;;0.63;;
21862;SDS011;11096;51.338;12.524;2023-04-01T08:15:52;1.17;;;0.73;;
21862;SDS011;11096;51.338;12.524;2023-04-01T08:21:09;2.33;;;0.60;;
21862;SDS011;11096;51.338;12.524;2023-04-01T08:23:44;1.95;;;0.60;;
21862;SDS011;11096;51.338;12.524;2023-04-01T08:26:14;4.65;;;1.00;;
21862;SDS011;11096;51.338;12.524;2023-04-01T08:28:52;1.58;;;0.52;;
21862;SDS011;11096;51.338;12.524;2023-04-01T08:33:50;1.27;;;0.77;;
21862;SDS011;11096;51.338;12.524;2023-04-01T08:36:20;1.30;;;0.70;;
21862;SDS011;11096;51.338;12.524;2023-04-01T08:38:57;2.70;;;0.60;;
21862;SDS011;11096;51.338;12.524;2023-04-01T08:46:54;1.13;;;0.60;;
21862;SDS011;11096;51.338;12.524;2023-04-01T08:52:34;1.60;;;0.65;;
21862;SDS011;11096;51.338;12.524;2023-04-01T08:58:06;1.60;;;0.75;;
21862;SDS011;11096;51.338;12.524;2023-04-01T09:00:53;7.60;;;0.70;;
21862;SDS011;11096;51.338;12.524;2023-04-01T09:03:33;0.93;;;0.55;;
21862;SDS011;11096;51.338;12.524;2023-04-01T09:11:07;1.52;;;0.70;;
21862;SDS011;11096;51.338;12.524;2023-04-01T09:22:01;0.63;;;0.50;;
21862;SDS011;11096;51.338;12.524;2023-04-01T09:24:40;2.25;;;0.70;;
21862;SDS011;11096;51.338;12.524;2023-04-01T09:32:41;1.42;;;0.60;;
21862;SDS011;11096;51.338;12.524;2023-04-01T09:35:47;1.95;;;0.70;;
21862;SDS011;11096;51.338;12.524;2023-04-01T09:44:11;0.82;;;0.57;;
21862;SDS011;11096;51.338;12.524;2023-04-01T10:20:46;1.88;;;0.80;;
21862;SDS011;11096;51.338;12.524;2023-04-01T10:23:27;4.20;;;1.00;;
21862;SDS011;11096;51.338;12.524;2023-04-01T10:31:57;2.58;;;0.70;;
21862;SDS011;11096;51.338;12.524;2023-04-01T10:43:29;1.55;;;0.70;;
21862;SDS011;11096;51.338;12.524;2023-04-01T10:55:40;1.48;;;0.80;;
21862;SDS011;11096;51.338;12.524;2023-04-01T11:27:56;0.57;;;0.45;;
21862;SDS011;11096;51.338;12.524;2023-04-01T11:41:26;1.92;;;0.38;;
21862;SDS011;11096;51.338;12.524;2023-04-01T11:46:51;0.63;;;0.30;;
21862;SDS011;11096;51.338;12.524;2023-04-01T11:49:43;1.05;;;0.40;;
21862;SDS011;11096;51.338;12.524;2023-04-01T11:52:22;2.28;;;0.38;;
21862;SDS011;11096;51.338;12.524;2023-04-01T12:05:47;0.32;;;0.30;;
21862;SDS011;11096;51.338;12.524;2023-04-01T12:14:39;1.88;;;0.45;;
21862;SDS011;11096;51.338;12.524;2023-04-01T12:17:25;0.35;;;0.30;;
21862;SDS011;11096;51.338;12.524;2023-04-01T12:39:48;2.75;;;1.20;;
21862;SDS011;11096;51.338;12.524;2023-04-01T12:56:14;0.70;;;0.52;;
21862;SDS011;11096;51.338;12.524;2023-04-01T12:58:58;1.95;;;0.88;;
21862;SDS011;11096;51.338;12.524;2023-04-01T13:04:07;1.13;;;0.60;;
21862;SDS011;11096;51.338;12.524;2023-04-01T13:10:31;4.53;;;0.63;;
21862;SDS011;11096;51.338;12.524;2023-04-01T13:12:48;0.73;;;0.47;;
21862;SDS011;11096;51.338;12.524;2023-04-01T13:15:51;0.65;;;0.50;;
21862;SDS011;11096;51.338;12.524;2023-04-01T13:21:15;0.40;;;0.40;;
21862;SDS011;11096;51.338;12.524;2023-04-01T13:29:21;0.40;;;0.30;;
21862;SDS011;11096;51.338;12.524;2023-04-01T13:31:55;1.08;;;0.43;;
21862;SDS011;11096;51.338;12.524;2023-04-01T13:34:55;0.47;;;0.38;;
21862;SDS011;11096;51.338;12.524;2023-04-01T13:43:32;0.40;;;0.40;;
21862;SDS011;11096;51.338;12.524;2023-04-01T14:01:40;0.47;;;0.47;;
21862;SDS011;11096;51.338;12.524;2023-04-01T14:25:54;1.30;;;0.40;;
21862;SDS011;11096;51.338;12.524;2023-04-01T14:44:57;2.40;;;0.50;;
21862;SDS011;11096;51.338;12.524;2023-04-01T14:50:09;2.35;;;0.50;;
21862;SDS011;11096;51.338;12.524;2023-04-01T14:52:40;0.32;;;0.30;;
21862;SDS011;11096;51.338;12.524;2023-04-01T14:57:59;0.47;;;0.45;;
21862;SDS011;11096;51.338;12.524;2023-04-01T15:00:47;0.40;;;0.40;;
21862;SDS011;11096;51.338;12.524;2023-04-01T15:05:47;0.70;;;0.60;;
21862;SDS011;11096;51.338;12.524;2023-04-01T15:08:36;0.75;;;0.40;;
21862;SDS011;11096;51.338;12.524;2023-04-01T15:13:52;3.05;;;0.60;;
21862;SDS011;11096;51.338;12.524;2023-04-01T15:21:57;1.90;;;0.70;;
21862;SDS011;11096;51.338;12.524;2023-04-01T15:25:05;0.85;;;0.75;;
21862;SDS011;11096;51.338;12.524;2023-04-01T15:30:33;1.02;;;0.70;;
21862;SDS011;11096;51.338;12.524;2023-04-01T15:38:38;0.80;;;0.70;;
21862;SDS011;11096;51.338;12.524;2023-04-01T15:44:25;1.38;;;0.60;;
21862;SDS011;11096;51.338;12.524;2023-04-01T15:58:37;1.13;;;0.95;;
21862;SDS011;11096;51.338;12.524;2023-04-01T16:01:34;2.15;;;1.00;;
21862;SDS011;11096;51.338;12.524;2023-04-01T16:07:27;2.50;;;1.10;;
21862;SDS011;11096;51.338;12.524;2023-04-01T16:23:14;1.75;;;0.80;;
21862;SDS011;11096;51.338;12.524;2023-04-01T16:26:01;1.45;;;0.90;;
21862;SDS011;11096;51.338;12.524;2023-04-01T16:28:30;1.35;;;1.00;;
21862;SDS011;11096;51.338;12.524;2023-04-01T16:36:22;1.70;;;1.05;;
21862;SDS011;11096;51.338;12.524;2023-04-01T16:44:31;2.65;;;1.40;;
21862;SDS011;11096;51.338;12.524;2023-04-01T16:47:15;2.20;;;1.52;;
21862;SDS011;11096;51.338;12.524;2023-04-01T16:49:53;2.03;;;1.48;;
21862;SDS011;11096;51.338;12.524;2023-04-01T16:52:30;2.42;;;1.50;;
21862;SDS011;11096;51.338;12.524;2023-04-01T16:55:03;3.08;;;1.80;;
21862;SDS011;11096;51.338;12.524;2023-04-01T16:57:45;3.08;;;2.00;;
21862;SDS011;11096;51.338;12.524;2023-04-01T17:00:16;1.85;;;1.40;;
21862;SDS011;11096;51.338;12.524;2023-04-01T17:02:57;1.30;;;1.20;;
21862;SDS011;11096;51.338;12.524;2023-04-01T17:19:56;4.47;;;2.75;;
21862;SDS011;11096;51.338;12.524;2023-04-01T17:28:48;4.93;;;2.80;;
21862;SDS011;11096;51.338;12.524;2023-04-01T17:42:47;2.40;;;1.27;;
21862;SDS011;11096;51.338;12.524;2023-04-01T17:45:20;1.40;;;0.80;;
21862;SDS011;11096;51.338;12.524;2023-04-01T17:48:00;1.00;;;0.90;;
21862;SDS011;11096;51.338;12.524;2023-04-01T17:50:36;2.55;;;1.00;;
21862;SDS011;11096;51.338;12.524;2023-04-01T17:55:44;3.13;;;1.35;;
21862;SDS011;11096;51.338;12.524;2023-04-01T17:58:37;3.60;;;2.60;;
21862;SDS011;11096;51.338;12.524;2023-04-01T18:09:16;4.30;;;3.17;;
21862;SDS011;11096;51.338;12.524;2023-04-01T18:33:47;3.63;;;1.85;;
21862;SDS011;11096;51.338;12.524;2023-04-01T18:39:17;2.70;;;1.55;;
21862;SDS011;11096;51.338;12.524;2023-04-01T18:50:56;1.40;;;0.75;;
21862;SDS011;11096;51.338;12.524;2023-04-01T18:53:31;0.60;;;0.60;;
21862;SDS011;11096;51.338;12.524;2023-04-01T18:56:02;0.90;;;0.50;;
21862;SDS011;11096;51.338;12.524;2023-04-01T19:01:11;1.52;;;0.75;;
21862;SDS011;11096;51.338;12.524;2023-04-01T19:03:44;1.10;;;1.00;;
21862;SDS011;11096;51.338;12.524;2023-04-01T19:06:21;1.50;;;1.30;;
21862;SDS011;11096;51.338;12.524;2023-04-01T19:08:52;2.92;;;1.77;;
21862;SDS011;11096;51.338;12.524;2023-04-01T19:11:21;4.57;;;1.95;;
21862;SDS011;11096;51.338;12.524;2023-04-01T19:19:42;5.32;;;3.45;;
21862;SDS011;11096;51.338;12.524;2023-04-01T19:27:53;4.35;;;3.28;;
21862;SDS011;11096;51.338;12.524;2023-04-01T19:36:09;4.82;;;3.00;;
21862;SDS011;11096;51.338;12.524;2023-04-01T19:38:51;4.88;;;3.15;;
21862;SDS011;11096;51.338;12.524;2023-04-01T19:44:09;4.43;;;3.15;;
21862;SDS011;11096;51.338;12.524;2023-04-01T20:08:42;5.18;;;3.65;;
21862;SDS011;11096;51.338;12.524;2023-04-01T20:11:52;5.88;;;3.30;;
21862;SDS011;11096;51.338;12.524;2023-04-01T20:19:39;7.47;;;4.38;;
21862;SDS011;11096;51.338;12.524;2023-04-01T20:22:57;6.22;;;4.50;;
21862;SDS011;11096;51.338;12.524;2023-04-01T20:27:56;7.40;;;5.13;;
21862;SDS011;11096;51.338;12.524;2023-04-01T20:30:30;7.18;;;4.95;;
21862;SDS011;11096;51.338;12.524;2023-04-01T20:46:38;7.30;;;4.47;;
21862;SDS011;11096;51.338;12.524;2023-04-01T20:49:15;6.22;;;4.57;;
21862;SDS011;11096;51.338;12.524;2023-04-01T20:52:14;6.63;;;4.72;;
21862;SDS011;11096;51.338;12.524;2023-04-01T20:57:25;9.45;;;5.78;;
21862;SDS011;11096;51.338;12.524;2023-04-01T21:02:52;9.80;;;6.50;;
21862;SDS011;11096;51.338;12.524;2023-04-01T21:08:26;8.57;;;6.18;;
21862;SDS011;11096;51.338;12.524;2023-04-01T21:47:28;7.10;;;5.00;;
21862;SDS011;11096;51.338;12.524;2023-04-01T21:50:32;8.27;;;4.95;;
21862;SDS011;11096;51.338;12.524;2023-04-01T21:53:30;6.35;;;4.63;;
21862;SDS011;11096;51.338;12.524;2023-04-01T22:02:00;8.68;;;6.05;;
21862;SDS011;11096;51.338;12.524;2023-04-01T22:04:36;9.73;;;5.90;;
21862;SDS011;11096;51.338;12.524;2023-04-01T22:07:09;9.57;;;5.95;;
21862;SDS011;11096;51.338;12.524;2023-04-01T22:09:51;9.27;;;5.97;;
21862;SDS011;11096;51.338;12.524;2023-04-01T22:17:52;8.75;;;5.70;;
21862;SDS011;11096;51.338;12.524;2023-04-01T22:20:30;7.65;;;5.22;;
21862;SDS011;11096;51.338;12.524;2023-04-01T22:23:20;9.20;;;5.20;;
21862;SDS011;11096;51.338;12.524;2023-04-01T22:31:47;7.28;;;5.50;;
21862;SDS011;11096;51.338;12.524;2023-04-01T22:43:01;8.52;;;5.03;;
21862;SDS011;11096;51.338;12.524;2023-04-01T22:50:36;7.28;;;4.85;;
21862;SDS011;11096;51.338;12.524;2023-04-01T22:55:59;7.60;;;4.28;;
21862;SDS011;11096;51.338;12.524;2023-04-01T22:58:30;6.20;;;4.53;;
21862;SDS011;11096;51.338;12.524;2023-04-01T23:01:07;5.07;;;4.03;;
21862;SDS011;11096;51.338;12.524;2023-04-01T23:03:41;6.25;;;4.20;;
21862;SDS011;11096;51.338;12.524;2023-04-01T23:06:15;5.45;;;3.67;;
21862;SDS011;11096;51.338;12.524;2023-04-01T23:11:36;4.82;;;3.45;;
21862;SDS011;11096;51.338;12.524;2023-04-01T23:31:02;5.00;;;3.72;;
21862;SDS011;11096;51.338;12.524;2023-04-01T23:33:28;5.88;;;4.20;;
21862;SDS011;11096;51.338;12.524;2023-04-01T23:35:56;7.72;;;4.07;;
21862;SDS011;11096;51.338;12.524;2023-04-01T23:38:40;5.45;;;4.13;;
21862;SDS011;11096;51.338;12.524;2023-04-01T23:41:07;4.90;;;3.55;;
21862;SDS011;11096;51.338;12.524;2023-04-01T23:43:42;5.70;;;3.92;;
21862;SDS011;11096;51.338;12.524;2023-04-01T23:46:10;5.47;;;3.97;;
21862;SDS011;11096;51.338;12.524;2023-04-01T23:48:41;5.55;;;3.70;;
21862;SDS011;11096;51.338;12.524;2023-04-01T23:53:54;8.45;;;3.97;;
21862;SDS011;11096;51.338;12.524;2023-04-01T23:56:31;6.45;;;3.97;;
21862;SDS011;11096;51.338;12.524;2023-04-01T23:58:59;6.53;;;4.10;;
